sensor_id;sensor_type;location;lat;lon;timestamp;pressure;altitude;pressure_sealevel;temperature;humidity
22311;BME280;11323;49.610;11.016;2023-05-10T00:03:50;97430.91;;;19.83;56.73
22311;BME280;11323;49.610;11.016;2023-05-10T00:08:50;97418.56;;;19.77;56.97
22311;BME280;11323;49.610;11.016;2023-05-10T00:13:51;97424.66;;;19.78;56.57
22311;BME280;11323;49.610;11.016;2023-05-10T00:18:51;97430.97;;;19.76;56.82
22311;BME280;11323;49.610;11.016;2023-05-10T00:23:51;97423.88;;;19.77;56.79
22311;BME280;11323;49.610;11.016;2023-05-10T00:28:52;97424.88;;;19.76;56.73
22311;BME280;11323;49.610;11.016;2023-05-10T00:33:52;97416.97;;;19.76;56.83
22311;BME280;11323;49.610;11.016;2023-05-10T00:38:53;97417.38;;;19.73;56.80
22311;BME280;11323;49.610;11.016;2023-05-10T00:43:53;97420.28;;;19.71;56.86
22311;BME280;11323;49.610;11.016;2023-05-10T00:48:54;97419.69;;;19.69;56.87
22311;BME280;11323;49.610;11.016;2023-05-10T00:53:54;97413.59;;;19.69;56.80
22311;BME280;11323;49.610;11.016;2023-05-10T00:58:56;97410.94;;;19.69;56.76
22311;BME280;11323;49.610;11.016;2023-05-10T01:03:57;97404.47;;;19.65;56.94
22311;BME280;11323;49.610;11.016;2023-05-10T01:08:58;97415.84;;;19.65;57.13
22311;BME280;11323;49.610;11.016;2023-05-10T01:13:59;97418.72;;;19.64;56.93
22311;BME280;11323;49.610;11.016;2023-05-10T01:18:59;97410.19;;;19.62;56.97
22311;BME280;11323;49.610;11.016;2023-05-10T01:40:39;97412.72;;;19.56;57.02
22311;BME280;11323;49.610;11.016;2023-05-10T01:46:01;97418.00;;;19.56;57.27
22311;BME280;11323;49.610;11.016;2023-05-10T01:51:05;97413.72;;;19.55;57.15
22311;BME280;11323;49.610;11.016;2023-05-10T01:56:07;97416.38;;;19.55;57.44
22311;BME280;11323;49.610;11.016;2023-05-10T02:01:09;97414.75;;;19.54;57.17
22311;BME280;11323;49.610;11.016;2023-05-10T02:06:12;97425.34;;;19.54;57.43
22311;BME280;11323;49.610;11.016;2023-05-10T02:11:14;97409.91;;;19.51;57.23
22311;BME280;11323;49.610;11.016;2023-05-10T02:16:16;97420.84;;;19.55;57.20
22311;BME280;11323;49.610;11.016;2023-05-10T02:21:19;97411.28;;;19.54;57.19
22311;BME280;11323;49.610;11.016;2023-05-10T02:26:21;97414.16;;;19.52;57.26
22311;BME280;11323;49.610;11.016;2023-05-10T02:31:24;97409.91;;;19.51;57.16
22311;BME280;11323;49.610;11.016;2023-05-10T02:36:26;97422.09;;;19.52;57.04
22311;BME280;11323;49.610;11.016;2023-05-10T02:41:28;97428.84;;;19.48;57.40
22311;BME280;11323;49.610;11.016;2023-05-10T02:46:31;97419.69;;;19.51;57.30
22311;BME280;11323;49.610;11.016;2023-05-10T02:51:32;97417.63;;;19.53;57.17
22311;BME280;11323;49.610;11.016;2023-05-10T02:56:36;97416.22;;;19.50;57.20
22311;BME280;11323;49.610;11.016;2023-05-10T03:01:40;97418.84;;;19.50;56.99
22311;BME280;11323;49.610;11.016;2023-05-10T03:06:41;97426.19;;;19.48;57.25
22311;BME280;11323;49.610;11.016;2023-05-10T03:22:23;97434.78;;;19.43;57.36
22311;BME280;11323;49.610;11.016;2023-05-10T03:27:26;97436.84;;;19.41;57.47
22311;BME280;11323;49.610;11.016;2023-05-10T03:32:28;97434.00;;;19.43;57.10
22311;BME280;11323;49.610;11.016;2023-05-10T03:37:30;97433.38;;;19.41;57.22
22311;BME280;11323;49.610;11.016;2023-05-10T03:42:31;97442.34;;;19.40;56.98
22311;BME280;11323;49.610;11.016;2023-05-10T03:47:31;97451.09;;;19.40;57.49
22311;BME280;11323;49.610;11.016;2023-05-10T03:52:33;97448.66;;;19.39;57.25
22311;BME280;11323;49.610;11.016;2023-05-10T03:57:34;97456.38;;;19.40;57.32
22311;BME280;11323;49.610;11.016;2023-05-10T04:02:34;97462.03;;;19.44;57.67
22311;BME280;11323;49.610;11.016;2023-05-10T04:07:35;97464.50;;;19.39;57.38
22311;BME280;11323;49.610;11.016;2023-05-10T04:12:35;97474.06;;;19.40;57.33
22311;BME280;11323;49.610;11.016;2023-05-10T04:17:36;97470.00;;;19.37;57.29
22311;BME280;11323;49.610;11.016;2023-05-10T04:22:37;97469.78;;;19.39;57.31
22311;BME280;11323;49.610;11.016;2023-05-10T04:27:37;97481.97;;;19.40;57.22
22311;BME280;11323;49.610;11.016;2023-05-10T04:32:37;97472.88;;;19.36;57.38
22311;BME280;11323;49.610;11.016;2023-05-10T04:37:38;97488.50;;;19.37;57.28
22311;BME280;11323;49.610;11.016;2023-05-10T04:42:40;97490.13;;;19.38;57.10
22311;BME280;11323;49.610;11.016;2023-05-10T04:47:41;97490.94;;;19.39;56.96
22311;BME280;11323;49.610;11.016;2023-05-10T04:52:41;97496.22;;;19.39;57.50
22311;BME280;11323;49.610;11.016;2023-05-10T04:57:42;97510.44;;;19.38;57.33
22311;BME280;11323;49.610;11.016;2023-05-10T05:02:43;97515.53;;;19.39;57.34
22311;BME280;11323;49.610;11.016;2023-05-10T05:07:46;97517.34;;;19.39;57.25
22311;BME280;11323;49.610;11.016;2023-05-10T05:12:47;97531.59;;;19.38;57.17
22311;BME280;11323;49.610;11.016;2023-05-10T05:17:47;97534.44;;;19.36;57.56
22311;BME280;11323;49.610;11.016;2023-05-10T05:22:48;97533.44;;;19.37;57.13
22311;BME280;11323;49.610;11.016;2023-05-10T05:27:48;97544.00;;;19.37;57.18
22311;BME280;11323;49.610;11.016;2023-05-10T05:32:48;97543.63;;;19.34;57.19
22311;BME280;11323;49.610;11.016;2023-05-10T05:37:49;97544.22;;;19.36;57.31
22311;BME280;11323;49.610;11.016;2023-05-10T05:42:49;97551.09;;;19.37;57.06
22311;BME280;11323;49.610;11.016;2023-05-10T05:47:49;97551.09;;;19.37;57.20
22311;BME280;11323;49.610;11.016;2023-05-10T05:52:50;97561.09;;;19.35;57.18
22311;BME280;11323;49.610;11.016;2023-05-10T05:57:51;97560.69;;;19.31;57.22
22311;BME280;11323;49.610;11.016;2023-05-10T06:02:51;97571.06;;;19.33;57.32
22311;BME280;11323;49.610;11.016;2023-05-10T06:07:52;97569.03;;;19.35;57.25
22311;BME280;11323;49.610;11.016;2023-05-10T06:12:52;97569.03;;;19.35;57.09
22311;BME280;11323;49.610;11.016;2023-05-10T06:17:53;97577.38;;;19.32;57.22
22311;BME280;11323;49.610;11.016;2023-05-10T06:22:53;97593.81;;;19.34;57.12
22311;BME280;11323;49.610;11.016;2023-05-10T06:27:54;97593.81;;;19.34;57.46
22311;BME280;11323;49.610;11.016;2023-05-10T06:32:57;97592.53;;;19.43;57.96
22311;BME280;11323;49.610;11.016;2023-05-10T06:37:59;97603.84;;;19.50;58.24
22311;BME280;11323;49.610;11.016;2023-05-10T06:43:00;97607.09;;;19.52;58.42
22311;BME280;11323;49.610;11.016;2023-05-10T06:48:00;97607.47;;;19.56;58.38
22311;BME280;11323;49.610;11.016;2023-05-10T06:53:01;97607.84;;;19.59;58.41
22311;BME280;11323;49.610;11.016;2023-05-10T06:58:02;97606.25;;;19.58;58.49
22311;BME280;11323;49.610;11.016;2023-05-10T07:03:02;97611.69;;;19.64;58.10
22311;BME280;11323;49.610;11.016;2023-05-10T07:08:03;97603.25;;;19.48;57.34
22311;BME280;11323;49.610;11.016;2023-05-10T07:13:03;97612.91;;;19.36;57.09
22311;BME280;11323;49.610;11.016;2023-05-10T07:18:04;97612.91;;;19.36;57.50
22311;BME280;11323;49.610;11.016;2023-05-10T07:23:06;97617.00;;;19.32;57.55
22311;BME280;11323;49.610;11.016;2023-05-10T07:28:06;97614.97;;;19.34;57.49
22311;BME280;11323;49.610;11.016;2023-05-10T07:33:07;97621.41;;;19.38;57.14
22311;BME280;11323;49.610;11.016;2023-05-10T07:38:09;97625.34;;;19.28;57.41
22311;BME280;11323;49.610;11.016;2023-05-10T07:43:11;97628.47;;;19.19;57.47
22311;BME280;11323;49.610;11.016;2023-05-10T07:48:11;97632.22;;;18.97;57.43
22311;BME280;11323;49.610;11.016;2023-05-10T07:53:11;97639.13;;;18.98;57.68
22311;BME280;11323;49.610;11.016;2023-05-10T07:58:12;97637.91;;;18.94;57.54
22311;BME280;11323;49.610;11.016;2023-05-10T08:03:12;97646.06;;;18.86;57.62
22311;BME280;11323;49.610;11.016;2023-05-10T08:08:13;97633.09;;;18.78;57.59
22311;BME280;11323;49.610;11.016;2023-05-10T08:13:13;97651.75;;;18.83;57.60
22311;BME280;11323;49.610;11.016;2023-05-10T08:18:13;97655.84;;;18.79;57.31
22311;BME280;11323;49.610;11.016;2023-05-10T08:23:14;97655.03;;;18.72;57.58
22311;BME280;11323;49.610;11.016;2023-05-10T08:28:14;97666.00;;;18.75;57.60
22311;BME280;11323;49.610;11.016;2023-05-10T08:33:15;97665.16;;;18.88;57.62
22311;BME280;11323;49.610;11.016;2023-05-10T08:38:15;97665.13;;;19.02;57.75
22311;BME280;11323;49.610;11.016;2023-05-10T08:43:17;97671.34;;;19.14;57.49
22311;BME280;11323;49.610;11.016;2023-05-10T08:48:18;97668.66;;;19.21;57.62
22311;BME280;11323;49.610;11.016;2023-05-10T08:53:19;97674.34;;;19.24;57.47
22311;BME280;11323;49.610;11.016;2023-05-10T08:58:20;97685.50;;;19.26;57.68
22311;BME280;11323;49.610;11.016;2023-05-10T09:03:20;97690.97;;;19.32;58.08
22311;BME280;11323;49.610;11.016;2023-05-10T09:08:20;97677.56;;;19.26;57.82
22311;BME280;11323;49.610;11.016;2023-05-10T09:13:22;97696.00;;;19.40;57.94
22311;BME280;11323;49.610;11.016;2023-05-10T09:18:23;97690.91;;;19.45;57.86
22311;BME280;11323;49.610;11.016;2023-05-10T09:23:23;97678.09;;;19.42;57.94
22311;BME280;11323;49.610;11.016;2023-05-10T09:28:32;97685.16;;;19.48;57.87
22311;BME280;11323;49.610;11.016;2023-05-10T09:33:43;97685.59;;;19.52;58.09
22311;BME280;11323;49.610;11.016;2023-05-10T09:38:48;97685.97;;;19.55;57.98
22311;BME280;11323;49.610;11.016;2023-05-10T09:43:49;97689.41;;;19.56;57.92
22311;BME280;11323;49.610;11.016;2023-05-10T09:48:50;97694.91;;;19.54;57.88
22311;BME280;11323;49.610;11.016;2023-05-10T09:59:11;97695.28;;;19.58;58.26
22311;BME280;11323;49.610;11.016;2023-05-10T10:04:12;97694.50;;;19.57;58.12
22311;BME280;11323;49.610;11.016;2023-05-10T10:09:13;97679.81;;;19.62;57.99
22311;BME280;11323;49.610;11.016;2023-05-10T10:14:14;97675.34;;;19.62;57.93
22311;BME280;11323;49.610;11.016;2023-05-10T10:19:14;97678.19;;;19.60;57.72
22311;BME280;11323;49.610;11.016;2023-05-10T10:24:15;97690.38;;;19.62;57.74
22311;BME280;11323;49.610;11.016;2023-05-10T10:29:23;97677.63;;;19.58;57.82
22311;BME280;11323;49.610;11.016;2023-05-10T10:34:27;97678.41;;;19.59;57.58
22311;BME280;11323;49.610;11.016;2023-05-10T10:39:28;97676.38;;;19.61;57.56
22311;BME280;11323;49.610;11.016;2023-05-10T10:54:49;97673.91;;;19.59;57.46
22311;BME280;11323;49.610;11.016;2023-05-10T10:59:50;97679.00;;;19.61;57.44
22311;BME280;11323;49.610;11.016;2023-05-10T11:04:50;97677.63;;;19.58;57.46
22311;BME280;11323;49.610;11.016;2023-05-10T11:09:51;97673.72;;;19.61;57.49
22311;BME280;11323;49.610;11.016;2023-05-10T11:14:51;97669.47;;;19.60;57.55
22311;BME280;11323;49.610;11.016;2023-05-10T11:20:11;97672.91;;;19.60;57.60
22311;BME280;11323;49.610;11.016;2023-05-10T11:25:14;97671.72;;;19.56;57.61
22311;BME280;11323;49.610;11.016;2023-05-10T11:30:14;97677.63;;;19.58;57.47
22311;BME280;11323;49.610;11.016;2023-05-10T11:35:15;97693.47;;;19.58;57.46
22311;BME280;11323;49.610;11.016;2023-05-10T11:40:15;97685.31;;;19.60;57.57
22311;BME280;11323;49.610;11.016;2023-05-10T11:45:16;97683.31;;;19.55;57.67
22311;BME280;11323;49.610;11.016;2023-05-10T11:50:17;97689.78;;;19.59;57.95
22311;BME280;11323;49.610;11.016;2023-05-10T11:55:17;97687.59;;;19.56;57.68
22311;BME280;11323;49.610;11.016;2023-05-10T12:00:18;97697.72;;;19.59;57.64
22311;BME280;11323;49.610;11.016;2023-05-10T12:05:18;97689.41;;;19.56;57.54
22311;BME280;11323;49.610;11.016;2023-05-10T12:10:26;97706.69;;;19.58;57.66
22311;BME280;11323;49.610;11.016;2023-05-10T12:15:27;97697.13;;;19.57;57.31
22311;BME280;11323;49.610;11.016;2023-05-10T12:20:28;97687.59;;;19.56;57.56
22311;BME280;11323;49.610;11.016;2023-05-10T12:25:31;97690.81;;;19.58;57.58
22311;BME280;11323;49.610;11.016;2023-05-10T12:30:34;97693.25;;;19.60;57.53
22311;BME280;11323;49.610;11.016;2023-05-10T12:35:44;97702.19;;;19.59;57.46
22311;BME280;11323;49.610;11.016;2023-05-10T12:40:44;97703.59;;;19.62;57.61
22311;BME280;11323;49.610;11.016;2023-05-10T12:45:45;97703.44;;;19.56;57.46
22311;BME280;11323;49.610;11.016;2023-05-10T12:50:48;97697.13;;;19.57;58.29
22311;BME280;11323;49.610;11.016;2023-05-10T12:55:48;97701.19;;;19.60;58.17
22311;BME280;11323;49.610;11.016;2023-05-10T13:00:49;97689.22;;;19.57;57.80
22311;BME280;11323;49.610;11.016;2023-05-10T13:05:51;97690.00;;;19.58;57.73
22311;BME280;11323;49.610;11.016;2023-05-10T13:10:52;97699.34;;;19.60;58.30
22311;BME280;11323;49.610;11.016;2023-05-10T13:15:53;97694.66;;;19.63;58.29
22311;BME280;11323;49.610;11.016;2023-05-10T13:20:53;97697.25;;;19.69;58.41
22311;BME280;11323;49.610;11.016;2023-05-10T13:25:54;97701.75;;;19.69;58.42
22311;BME280;11323;49.610;11.016;2023-05-10T13:30:54;97702.53;;;19.69;58.64
22311;BME280;11323;49.610;11.016;2023-05-10T13:35:55;97703.38;;;19.70;58.69
22311;BME280;11323;49.610;11.016;2023-05-10T13:40:55;97703.56;;;19.68;58.45
22311;BME280;11323;49.610;11.016;2023-05-10T13:45:55;97699.66;;;19.71;58.63
22311;BME280;11323;49.610;11.016;2023-05-10T13:50:56;97699.25;;;19.74;58.34
22311;BME280;11323;49.610;11.016;2023-05-10T13:55:56;97698.44;;;19.73;58.29
22311;BME280;11323;49.610;11.016;2023-05-10T14:00:57;97692.34;;;19.73;58.23
22311;BME280;11323;49.610;11.016;2023-05-10T14:05:58;97690.28;;;19.75;58.78
22311;BME280;11323;49.610;11.016;2023-05-10T14:10:58;97694.97;;;19.73;58.52
22311;BME280;11323;49.610;11.016;2023-05-10T14:15:58;97708.66;;;19.70;58.48
22311;BME280;11323;49.610;11.016;2023-05-10T14:21:02;97710.69;;;19.68;58.54
22311;BME280;11323;49.610;11.016;2023-05-10T14:26:02;97714.13;;;19.68;58.35
22311;BME280;11323;49.610;11.016;2023-05-10T14:31:03;97707.03;;;19.69;58.50
22311;BME280;11323;49.610;11.016;2023-05-10T14:36:03;97707.44;;;19.66;58.50
22311;BME280;11323;49.610;11.016;2023-05-10T14:41:04;97700.53;;;19.65;58.31
22311;BME280;11323;49.610;11.016;2023-05-10T14:46:04;97700.53;;;19.65;58.19
22311;BME280;11323;49.610;11.016;2023-05-10T14:51:04;97695.47;;;19.63;58.25
22311;BME280;11323;49.610;11.016;2023-05-10T14:56:05;97693.63;;;19.64;58.13
22311;BME280;11323;49.610;11.016;2023-05-10T15:01:06;97702.16;;;19.66;58.01
22311;BME280;11323;49.610;11.016;2023-05-10T15:06:08;97720.06;;;19.64;58.20
22311;BME280;11323;49.610;11.016;2023-05-10T15:11:08;97735.13;;;19.63;58.03
22311;BME280;11323;49.610;11.016;2023-05-10T15:16:09;97738.97;;;19.60;58.01
22311;BME280;11323;49.610;11.016;2023-05-10T15:21:09;97747.34;;;19.57;58.02
22311;BME280;11323;49.610;11.016;2023-05-10T15:26:10;97753.22;;;19.59;58.24
22311;BME280;11323;49.610;11.016;2023-05-10T15:31:10;97758.13;;;19.56;58.02
22311;BME280;11323;49.610;11.016;2023-05-10T15:36:11;97762.81;;;19.54;57.85
22311;BME280;11323;49.610;11.016;2023-05-10T15:41:11;97758.94;;;19.56;58.03
22311;BME280;11323;49.610;11.016;2023-05-10T15:46:12;97761.00;;;19.54;57.90
22311;BME280;11323;49.610;11.016;2023-05-10T15:51:12;97755.09;;;19.52;58.09
22311;BME280;11323;49.610;11.016;2023-05-10T15:56:13;97764.44;;;19.55;58.21
22311;BME280;11323;49.610;11.016;2023-05-10T16:01:14;97762.81;;;19.54;57.97
22311;BME280;11323;49.610;11.016;2023-05-10T16:06:14;97752.22;;;19.54;57.96
22311;BME280;11323;49.610;11.016;2023-05-10T16:11:14;97767.69;;;19.57;58.11
22311;BME280;11323;49.610;11.016;2023-05-10T16:16:15;97770.69;;;19.60;58.07
22311;BME280;11323;49.610;11.016;2023-05-10T16:21:15;97766.03;;;19.63;58.15
22311;BME280;11323;49.610;11.016;2023-05-10T16:26:16;97766.84;;;19.63;58.14
22311;BME280;11323;49.610;11.016;2023-05-10T16:31:16;97770.88;;;19.66;58.36
22311;BME280;11323;49.610;11.016;2023-05-10T16:36:19;97778.81;;;19.66;58.25
22311;BME280;11323;49.610;11.016;2023-05-10T16:41:20;97773.13;;;19.69;58.22
22311;BME280;11323;49.610;11.016;2023-05-10T16:46:20;97784.72;;;19.68;58.09
22311;BME280;11323;49.610;11.016;2023-05-10T16:51:20;97785.50;;;19.68;57.97
22311;BME280;11323;49.610;11.016;2023-05-10T16:56:21;97787.34;;;19.68;58.04
22311;BME280;11323;49.610;11.016;2023-05-10T17:01:22;97786.34;;;19.69;58.00
22311;BME280;11323;49.610;11.016;2023-05-10T17:06:22;97807.03;;;19.72;58.02
22311;BME280;11323;49.610;11.016;2023-05-10T17:11:23;97806.25;;;19.71;57.98
22311;BME280;11323;49.610;11.016;2023-05-10T17:16:23;97815.59;;;19.74;57.93
22311;BME280;11323;49.610;11.016;2023-05-10T17:21:24;97824.91;;;19.76;58.05
22311;BME280;11323;49.610;11.016;2023-05-10T17:26:24;97825.13;;;19.75;58.04
22311;BME280;11323;49.610;11.016;2023-05-10T17:31:26;97825.34;;;19.73;58.14
22311;BME280;11323;49.610;11.016;2023-05-10T17:36:27;97832.84;;;19.76;58.15
22311;BME280;11323;49.610;11.016;2023-05-10T17:41:27;97829.41;;;19.76;58.24
22311;BME280;11323;49.610;11.016;2023-05-10T17:46:28;97833.44;;;19.79;58.06
22311;BME280;11323;49.610;11.016;2023-05-10T17:51:28;97831.03;;;19.77;58.05
22311;BME280;11323;49.610;11.016;2023-05-10T17:56:29;97840.16;;;19.81;57.96
22311;BME280;11323;49.610;11.016;2023-05-10T18:01:29;97842.81;;;19.81;58.15
22311;BME280;11323;49.610;11.016;2023-05-10T18:06:30;97846.91;;;19.77;58.05
22311;BME280;11323;49.610;11.016;2023-05-10T18:11:30;97853.41;;;19.74;58.16
22311;BME280;11323;49.610;11.016;2023-05-10T18:16:31;97856.25;;;19.73;57.93
22311;BME280;11323;49.610;11.016;2023-05-10T18:21:31;97858.72;;;19.68;57.89
22311;BME280;11323;49.610;11.016;2023-05-10T18:26:32;97855.66;;;19.71;58.03
22311;BME280;11323;49.610;11.016;2023-05-10T18:31:32;97862.75;;;19.77;57.89
22311;BME280;11323;49.610;11.016;2023-05-10T18:36:33;97862.16;;;19.75;57.90
22311;BME280;11323;49.610;11.016;2023-05-10T18:41:33;97869.66;;;19.78;58.26
22311;BME280;11323;49.610;11.016;2023-05-10T18:46:34;97862.75;;;19.77;59.02
22311;BME280;11323;49.610;11.016;2023-05-10T18:51:34;97867.81;;;19.79;58.85
22311;BME280;11323;49.610;11.016;2023-05-10T18:56:35;97865.00;;;19.80;58.87
22311;BME280;11323;49.610;11.016;2023-05-10T19:01:36;97877.78;;;19.83;59.14
22311;BME280;11323;49.610;11.016;2023-05-10T19:06:36;97874.09;;;19.84;59.23
22311;BME280;11323;49.610;11.016;2023-05-10T19:11:37;97882.88;;;19.92;59.17
22311;BME280;11323;49.610;11.016;2023-05-10T19:16:38;97889.19;;;19.90;58.98
22311;BME280;11323;49.610;11.016;2023-05-10T19:21:39;97894.03;;;19.94;58.65
22311;BME280;11323;49.610;11.016;2023-05-10T19:26:39;97894.03;;;19.94;58.68
22311;BME280;11323;49.610;11.016;2023-05-10T19:31:39;97892.44;;;19.93;59.10
22311;BME280;11323;49.610;11.016;2023-05-10T19:36:40;97896.25;;;19.97;58.91
22311;BME280;11323;49.610;11.016;2023-05-10T19:41:40;97902.16;;;19.99;59.06
22311;BME280;11323;49.610;11.016;2023-05-10T19:46:41;97889.34;;;19.96;59.06
22311;BME280;11323;49.610;11.016;2023-05-10T19:51:41;97897.09;;;19.97;59.27
22311;BME280;11323;49.610;11.016;2023-05-10T19:56:41;97902.16;;;19.99;59.11
22311;BME280;11323;49.610;11.016;2023-05-10T20:01:42;97902.34;;;20.04;59.20
22311;BME280;11323;49.610;11.016;2023-05-10T20:06:42;97899.69;;;20.04;58.92
22311;BME280;11323;49.610;11.016;2023-05-10T20:11:43;97892.78;;;20.03;59.09
22311;BME280;11323;49.610;11.016;2023-05-10T20:16:43;97892.78;;;20.03;59.11
22311;BME280;11323;49.610;11.016;2023-05-10T20:21:44;97902.91;;;20.06;59.32
22311;BME280;11323;49.610;11.016;2023-05-10T20:26:44;97902.13;;;20.05;59.04
22311;BME280;11323;49.610;11.016;2023-05-10T20:31:44;97891.31;;;20.07;59.27
22311;BME280;11323;49.610;11.016;2023-05-10T20:36:45;97893.53;;;20.10;58.87
22311;BME280;11323;49.610;11.016;2023-05-10T20:41:45;97896.19;;;20.10;58.41
22311;BME280;11323;49.610;11.016;2023-05-10T20:46:46;97899.53;;;19.92;57.37
22311;BME280;11323;49.610;11.016;2023-05-10T20:51:47;97913.66;;;19.66;57.75
22311;BME280;11323;49.610;11.016;2023-05-10T20:56:47;97906.38;;;19.48;58.10
22311;BME280;11323;49.610;11.016;2023-05-10T21:01:48;97900.72;;;19.31;58.22
22311;BME280;11323;49.610;11.016;2023-05-10T21:06:48;97901.97;;;19.21;58.31
22311;BME280;11323;49.610;11.016;2023-05-10T21:11:49;97896.91;;;19.13;58.29
22311;BME280;11323;49.610;11.016;2023-05-10T21:16:49;97892.22;;;19.08;58.56
22311;BME280;11323;49.610;11.016;2023-05-10T21:21:50;97888.13;;;18.92;58.96
22311;BME280;11323;49.610;11.016;2023-05-10T21:26:50;97887.34;;;18.85;58.99
22311;BME280;11323;49.610;11.016;2023-05-10T21:31:51;97884.09;;;18.83;59.01
22311;BME280;11323;49.610;11.016;2023-05-10T21:36:53;97889.78;;;18.80;58.95
22311;BME280;11323;49.610;11.016;2023-05-10T21:41:53;97889.56;;;18.75;59.33
22311;BME280;11323;49.610;11.016;2023-05-10T21:46:54;97887.75;;;18.62;59.41
22311;BME280;11323;49.610;11.016;2023-05-10T21:51:54;97893.84;;;18.62;59.52
22311;BME280;11323;49.610;11.016;2023-05-10T21:56:54;97885.53;;;18.79;59.08
22311;BME280;11323;49.610;11.016;2023-05-10T22:01:55;97884.72;;;18.98;58.81
22311;BME280;11323;49.610;11.016;2023-05-10T22:06:55;97880.84;;;19.08;58.71
22311;BME280;11323;49.610;11.016;2023-05-10T22:11:56;97887.13;;;19.13;58.50
22311;BME280;11323;49.610;11.016;2023-05-10T22:16:56;97890.16;;;19.17;58.24
22311;BME280;11323;49.610;11.016;2023-05-10T22:21:57;97893.03;;;19.22;58.34
22311;BME280;11323;49.610;11.016;2023-05-10T22:26:57;97886.91;;;19.22;58.22
22311;BME280;11323;49.610;11.016;2023-05-10T22:31:57;97889.38;;;19.23;58.18
22311;BME280;11323;49.610;11.016;2023-05-10T22:36:58;97889.94;;;19.25;58.17
22311;BME280;11323;49.610;11.016;2023-05-10T22:42:01;97878.56;;;19.25;58.15
22311;BME280;11323;49.610;11.016;2023-05-10T22:47:01;97888.94;;;19.26;57.95
22311;BME280;11323;49.610;11.016;2023-05-10T22:52:02;97877.56;;;19.26;58.03
22311;BME280;11323;49.610;11.016;2023-05-10T22:57:03;97885.28;;;19.27;58.06
22311;BME280;11323;49.610;11.016;2023-05-10T23:02:03;97886.91;;;19.28;58.06
22311;BME280;11323;49.610;11.016;2023-05-10T23:07:04;97885.88;;;19.29;58.08
22311;BME280;11323;49.610;11.016;2023-05-10T23:12:04;97885.50;;;19.26;58.07
22311;BME280;11323;49.610;11.016;2023-05-10T23:17:04;97886.28;;;19.26;57.98
22311;BME280;11323;49.610;11.016;2023-05-10T23:22:05;97895.66;;;19.29;58.18
22311;BME280;11323;49.610;11.016;2023-05-10T23:27:05;97888.13;;;19.26;57.99
22311;BME280;11323;49.610;11.016;2023-05-10T23:32:06;97889.38;;;19.23;57.90
22311;BME280;11323;49.610;11.016;2023-05-10T23:37:06;97894.66;;;19.23;57.92
22311;BME280;11323;49.610;11.016;2023-05-10T23:42:06;97892.00;;;19.23;58.03
22311;BME280;11323;49.610;11.016;2023-05-10T23:47:07;97884.09;;;19.23;57.93
22311;BME280;11323;49.610;11.016;2023-05-10T23:52:08;97893.03;;;19.22;58.07
22311;BME280;11323;49.610;11.016;2023-05-10T23:57:08;97879.81;;;19.22;57.76
